Tina-c — 2APY2 — position and weather

sailwx.info

Track history (hours):
 
Tides and Currents Weather Stations Pressure Air Temp Water Temp Dewpoint Dewpoint Depression Visibility Wind Speed Wind Dir Waves Ship Positions

Tina-c

Last reported at 2017-Oct-21 10:32 UTC. Time now 2017-Oct-22 06:49 UTC.
Position N 51°30' E 000°52'.

Length 99 m; draft 4.1 m.

Type: Cargo ship. MMSI: 235061987.

Date/timePositionNaut miles runAvg speedWind from/ knotsBaromVisibWave heightAir tempDewpointWater temp
2017-Oct-21 10:32N 51°30' E 000°52'310.7
2017-Oct-21 10:18N 51°29' E 000°56'310.6
2017-Oct-21 09:59N 51°30' E 001°01'510.2
2017-Oct-21 09:30N 51°29' E 001°09'610.4
2017-Oct-21 08:54N 51°29' E 001°19'410.7
2017-Oct-21 08:30N 51°28' E 001°26'4 9.0
2017-Oct-21 08:00N 51°25' E 001°30'3 5.9
2017-Oct-21 07:30N 51°22' E 001°33'1 2.0
2017-Oct-21 07:00N 51°22' E 001°34'2 4.7
2017-Oct-21 06:30N 51°24' E 001°32'0 0.7
2017-Oct-21 06:00N 51°24' E 001°32'1 1.9
2017-Oct-21 05:30N 51°23' E 001°33'1 1.4
2017-Oct-21 05:00N 51°22' E 001°33'1 1.8
2017-Oct-21 04:30N 51°23' E 001°33'1 1.0
2017-Oct-21 04:00N 51°24' E 001°32'0 0.6
2017-Oct-21 03:30N 51°24' E 001°32'0 1.0
2017-Oct-21 03:00N 51°24' E 001°33'1 2.8
2017-Oct-21 02:30N 51°23' E 001°35'3 5.8
2017-Oct-21 02:00N 51°21' E 001°37'612.1
2017-Oct-21 01:30N 51°15' E 001°38'611.6
2017-Oct-21 01:00N 51°09' E 001°39'510.9
2017-Oct-21 00:30N 51°04' E 001°37'16610.5
2017-Oct-20 08:41N 50°12' W 002°32'713.6
2017-Oct-20 08:10N 50°12' W 002°43'313.6
2017-Oct-20 07:58N 50°12' W 002°47'613.4
2017-Oct-20 07:30N 50°11' W 002°57'713.4
2017-Oct-20 07:00N 50°10' W 003°07'713.4
2017-Oct-20 06:30N 50°09' W 003°17'713.5
2017-Oct-20 06:01N 50°07' W 003°28'713.5
2017-Oct-20 05:30N 50°05' W 003°38'713.3
2017-Oct-20 04:58N 50°04' W 003°49'1812.7
2017-Oct-20 03:32N 50°00' W 004°17'223 9.5
2017-Oct-19 04:01N 51°11' W 009°49'011.2
2017-Oct-19 04:00N 51°11' W 009°50'611.1
2017-Oct-19 03:30N 51°15' W 009°56'910.8
2017-Oct-19 02:40N 51°20' W 010°08'410.9
2017-Oct-19 02:15N 51°22' W 010°14'310.4
2017-Oct-19 01:57N 51°24' W 010°18'  
2017-Oct-15 21:55N 51°33' W 010°32'410.3
2017-Oct-15 21:30N 51°29' W 010°28'510.8
2017-Oct-15 21:00N 51°26' W 010°21'510.5
2017-Oct-15 20:30N 51°23' W 010°15'510.7
2017-Oct-15 20:00N 51°20' W 010°08'510.6
2017-Oct-15 19:30N 51°16' W 010°01'510.8
2017-Oct-15 19:00N 51°13' W 009°54'610.9
2017-Oct-15 18:29N 51°10' W 009°47'511.1
2017-Oct-15 18:00N 51°06' W 009°41'611.1
2017-Oct-15 17:30N 51°03' W 009°33'12410.2
2017-Oct-15 05:24N 49°48' W 006°59'14 9.6
2017-Oct-15 03:54N 49°43' W 006°38'710.1
2017-Oct-15 03:15N 49°43' W 006°28'5 9.7
2017-Oct-15 02:41N 49°43' W 006°20'2 9.9
2017-Oct-15 02:29N 49°43' W 006°17'5 9.7
2017-Oct-15 02:00N 49°44' W 006°10'5 9.5
2017-Oct-15 01:30N 49°45' W 006°02'14 9.7
2017-Oct-15 00:04N 49°48' W 005°41'1 9.8
2017-Oct-14 23:57N 49°48' W 005°40'4 9.9
2017-Oct-14 23:31N 49°49' W 005°33'6 9.9
2017-Oct-14 22:53N 49°51' W 005°24'710.1
2017-Oct-14 22:12N 49°52' W 005°13'310.5
2017-Oct-14 21:56N 49°53' W 005°09'610.6
2017-Oct-14 21:21N 49°54' W 004°60'410.8
2017-Oct-14 20:59N 49°55' W 004°54'510.9
2017-Oct-14 20:30N 49°56' W 004°46'510.9
2017-Oct-14 20:00N 49°57' W 004°37'611.1
2017-Oct-14 19:30N 49°58' W 004°29'611.2
2017-Oct-14 19:00N 49°60' W 004°21'611.2
2017-Oct-14 18:31N 50°01' W 004°12'611.1
2017-Oct-14 18:01N 50°02' W 004°04'610.9
2017-Oct-14 17:30N 50°03' W 003°55'510.6
2017-Oct-14 17:00N 50°04' W 003°47'510.3
2017-Oct-14 16:31N 50°06' W 003°39'510.0
2017-Oct-14 16:01N 50°07' W 003°32'5 9.9
2017-Oct-14 15:30N 50°08' W 003°24'5 9.7
2017-Oct-14 15:01N 50°09' W 003°17'5 9.7
2017-Oct-14 14:31N 50°10' W 003°09'5 9.7
2017-Oct-14 14:00N 50°11' W 003°02'5 9.6
2017-Oct-14 13:31N 50°11' W 002°54'5 9.8
2017-Oct-14 12:59N 50°13' W 002°47'510.1
2017-Oct-14 12:30N 50°13' W 002°39'510.4
2017-Oct-14 11:59N 50°14' W 002°31'8311.7
2017-Oct-14 04:51N 50°29' W 000°23'3 9.9
2017-Oct-14 04:31N 50°30' W 000°17'5 9.7
2017-Oct-14 04:00N 50°31' W 000°10'5 9.5
2017-Oct-14 03:30N 50°32' W 000°03'5 9.4
2017-Oct-14 03:01N 50°33' E 000°05'5 9.4
2017-Oct-14 02:31N 50°34' E 000°12'5 9.6
2017-Oct-14 02:00N 50°35' E 000°19'5 9.8
2017-Oct-14 01:31N 50°37' E 000°26'510.3
2017-Oct-14 01:01N 50°38' E 000°34'510.7
2017-Oct-14 00:31N 50°42' E 000°41'510.9
2017-Oct-14 00:00N 50°45' E 000°48'611.1
2017-Oct-13 23:30N 50°48' E 000°56'711.2
2017-Oct-13 22:52N 50°52' E 001°05'411.0
2017-Oct-13 22:27N 50°55' E 001°10'510.7
2017-Oct-13 21:57N 50°59' E 001°17'510.3
2017-Oct-13 21:30N 51°01' E 001°22'5 9.9
2017-Oct-13 21:01N 51°05' E 001°28'5 9.3
2017-Oct-13 20:31N 51°08' E 001°34'4 8.6
2017-Oct-13 20:00N 51°10' E 001°39'4 8.5
2017-Oct-13 19:31N 51°13' E 001°44'4 8.4
2017-Oct-13 19:01N 51°17' E 001°48'4 8.6
2017-Oct-13 18:31N 51°20' E 001°51'4 8.7
2017-Oct-13 18:00N 51°24' E 001°54'5 9.1
2017-Oct-13 17:31N 51°28' E 001°59'5 9.5
2017-Oct-13 16:58N 51°31' E 002°04'5 9.9
2017-Oct-13 16:29N 51°35' E 002°10'5810.5
2017-Oct-13 10:57N 52°19' E 003°11'4 9.2
2017-Oct-13 10:29N 52°22' E 003°15'5 9.1
2017-Oct-13 09:59N 52°26' E 003°20'4 9.0
2017-Oct-13 09:29N 52°28' E 003°27'5 9.3
2017-Oct-13 08:59N 52°29' E 003°34'4 9.3
2017-Oct-13 08:30N 52°31' E 003°41'5 9.3
2017-Oct-13 07:59N 52°31' E 003°49'5 9.5
2017-Oct-13 07:29N 52°31' E 003°57'5 9.5
2017-Oct-13 07:00N 52°31' E 004°05'5 9.8
2017-Oct-13 06:30N 52°31' E 004°13'510.2
2017-Oct-13 06:01N 52°30' E 004°21'4 8.8
2017-Oct-13 05:31N 52°29' E 004°28'5 9.3
2017-Oct-13 05:00N 52°28' E 004°35'1 1.3
2017-Oct-13 04:30N 52°28' E 004°36'3 5.9
2017-Oct-13 04:00N 52°27' E 004°41'4 8.5
2017-Oct-13 03:30N 52°25' E 004°46'1 1.1
2017-Oct-13 03:00N 52°24' E 004°47'0 0.0
2017-Oct-13 02:30N 52°24' E 004°47'0 0.0
2017-Oct-13 01:57N 52°24' E 004°47'0 0.0
2017-Oct-13 01:30N 52°24' E 004°47'0 0.0
2017-Oct-13 00:51N 52°24' E 004°47'0 0.0
2017-Oct-13 00:21N 52°24' E 004°47'0 0.0
2017-Oct-13 00:00N 52°24' E 004°47'0 0.0
2017-Oct-12 23:27N 52°24' E 004°47'0 0.0
2017-Oct-12 22:54N 52°24' E 004°47'0 0.0
2017-Oct-12 22:30N 52°24' E 004°47'0 0.0
2017-Oct-12 22:00N 52°24' E 004°47'0 0.0
2017-Oct-12 21:30N 52°24' E 004°47'0 0.0
2017-Oct-12 21:00N 52°24' E 004°47'0 0.0
2017-Oct-12 20:30N 52°24' E 004°47'0 0.0
2017-Oct-12 19:48N 52°24' E 004°47'0 0.0
2017-Oct-12 19:24N 52°24' E 004°47'0 0.0
2017-Oct-12 19:00N 52°24' E 004°47'0 0.0
2017-Oct-12 18:24N 52°24' E 004°47'0 0.0
2017-Oct-12 18:00N 52°24' E 004°47'0 0.0
2017-Oct-12 17:30N 52°24' E 004°47'0 0.0
2017-Oct-12 17:00N 52°24' E 004°47'0 0.0
2017-Oct-12 16:12N 52°24' E 004°47'0 0.0
2017-Oct-12 15:48N 52°24' E 004°47'0 0.0
2017-Oct-12 15:27N 52°24' E 004°47'0 0.0
2017-Oct-12 14:39N 52°24' E 004°47'0 0.0
2017-Oct-12 14:30N 52°24' E 004°47'0 0.0
2017-Oct-12 14:00N 52°24' E 004°47'0 0.0
2017-Oct-12 13:18N 52°24' E 004°47'0 0.0
2017-Oct-12 12:51N 52°24' E 004°47'0 0.0
2017-Oct-12 12:30N 52°24' E 004°47'0 0.0
2017-Oct-12 11:45N 52°24' E 004°47'0 0.0
2017-Oct-12 11:30N 52°24' E 004°47'0 0.0
2017-Oct-12 10:57N 52°24' E 004°47'0 0.0
2017-Oct-12 10:30N 52°24' E 004°47'0 0.0
2017-Oct-12 09:54N 52°24' E 004°47'0 0.0
2017-Oct-12 09:27N 52°24' E 004°47'0 0.0
2017-Oct-12 08:36N 52°24' E 004°47'0 0.0
2017-Oct-12 08:30N 52°24' E 004°47'0 0.0
2017-Oct-12 07:57N 52°24' E 004°47'0 0.0
2017-Oct-12 07:27N 52°24' E 004°47'0 0.0
2017-Oct-12 06:39N 52°24' E 004°47'0 0.0
2017-Oct-12 06:30N 52°24' E 004°47'0 0.0
2017-Oct-12 05:54N 52°24' E 004°47'0 0.0
2017-Oct-12 05:30N 52°24' E 004°47'0 0.0
2017-Oct-12 04:51N 52°24' E 004°47'0 0.0
2017-Oct-12 04:27N 52°24' E 004°47'0 0.0
2017-Oct-12 04:00N 52°24' E 004°47'0 0.0
2017-Oct-12 03:15N 52°24' E 004°47'0 0.0
2017-Oct-12 03:00N 52°24' E 004°47'0 0.0
2017-Oct-12 02:18N 52°24' E 004°47'0 0.0
2017-Oct-12 01:54N 52°24' E 004°47'0 0.0
2017-Oct-12 01:27N 52°24' E 004°47'0 0.0
2017-Oct-12 01:00N 52°24' E 004°47'0 0.0
2017-Oct-12 00:27N 52°24' E 004°47'0 0.0
2017-Oct-12 00:00N 52°24' E 004°47'0 0.0
2017-Oct-11 23:24N 52°24' E 004°47'0 0.0
2017-Oct-11 22:57N 52°24' E 004°47'0 0.0
2017-Oct-11 22:30N 52°24' E 004°47'0 0.0
2017-Oct-11 21:54N 52°24' E 004°47'0 0.0
2017-Oct-11 21:24N 52°24' E 004°47'0 0.0
2017-Oct-11 20:54N 52°24' E 004°47'0 0.0
2017-Oct-11 20:30N 52°24' E 004°47'0 0.0
2017-Oct-11 19:51N 52°24' E 004°47'0 0.0
2017-Oct-11 19:30N 52°24' E 004°47'0 0.0
2017-Oct-11 18:54N 52°24' E 004°47'0 0.0
2017-Oct-11 18:15N 52°24' E 004°47'0 0.0
2017-Oct-11 17:42N 52°24' E 004°47'0 0.0
2017-Oct-11 17:27N 52°24' E 004°47'0 0.0
2017-Oct-11 16:35N 52°24' E 004°47'  
Track history (hours):
 
Tides and Currents Weather Stations Pressure Air Temp Water Temp Dewpoint Dewpoint Depression Visibility Wind Speed Wind Dir Waves Ship Positions

Tina-c

Last reported at 2017-Oct-21 10:32 UTC. Time now 2017-Oct-22 06:49 UTC.
Position N 51°30' E 000°52'.

Length 99 m; draft 4.1 m.

Type: Cargo ship. MMSI: 235061987.

Date/timePositionNaut miles runAvg speedWind from/ knotsBaromVisibWave heightAir tempDewpointWater temp
2017-Oct-21 10:32N 51°30' E 000°52'310.7
2017-Oct-21 10:18N 51°29' E 000°56'310.6
2017-Oct-21 09:59N 51°30' E 001°01'510.2
2017-Oct-21 09:30N 51°29' E 001°09'610.4
2017-Oct-21 08:54N 51°29' E 001°19'410.7
2017-Oct-21 08:30N 51°28' E 001°26'4 9.0
2017-Oct-21 08:00N 51°25' E 001°30'3 5.9
2017-Oct-21 07:30N 51°22' E 001°33'1 2.0
2017-Oct-21 07:00N 51°22' E 001°34'2 4.7
2017-Oct-21 06:30N 51°24' E 001°32'0 0.7
2017-Oct-21 06:00N 51°24' E 001°32'1 1.9
2017-Oct-21 05:30N 51°23' E 001°33'1 1.4
2017-Oct-21 05:00N 51°22' E 001°33'1 1.8
2017-Oct-21 04:30N 51°23' E 001°33'1 1.0
2017-Oct-21 04:00N 51°24' E 001°32'0 0.6
2017-Oct-21 03:30N 51°24' E 001°32'0 1.0
2017-Oct-21 03:00N 51°24' E 001°33'1 2.8
2017-Oct-21 02:30N 51°23' E 001°35'3 5.8
2017-Oct-21 02:00N 51°21' E 001°37'612.1
2017-Oct-21 01:30N 51°15' E 001°38'611.6
2017-Oct-21 01:00N 51°09' E 001°39'510.9
2017-Oct-21 00:30N 51°04' E 001°37'16610.5
2017-Oct-20 08:41N 50°12' W 002°32'713.6
2017-Oct-20 08:10N 50°12' W 002°43'313.6
2017-Oct-20 07:58N 50°12' W 002°47'613.4
2017-Oct-20 07:30N 50°11' W 002°57'713.4
2017-Oct-20 07:00N 50°10' W 003°07'713.4
2017-Oct-20 06:30N 50°09' W 003°17'713.5
2017-Oct-20 06:01N 50°07' W 003°28'713.5
2017-Oct-20 05:30N 50°05' W 003°38'713.3
2017-Oct-20 04:58N 50°04' W 003°49'1812.7
2017-Oct-20 03:32N 50°00' W 004°17'223 9.5
2017-Oct-19 04:01N 51°11' W 009°49'011.2
2017-Oct-19 04:00N 51°11' W 009°50'611.1
2017-Oct-19 03:30N 51°15' W 009°56'910.8
2017-Oct-19 02:40N 51°20' W 010°08'410.9
2017-Oct-19 02:15N 51°22' W 010°14'310.4
2017-Oct-19 01:57N 51°24' W 010°18'  
2017-Oct-15 21:55N 51°33' W 010°32'410.3
2017-Oct-15 21:30N 51°29' W 010°28'510.8
2017-Oct-15 21:00N 51°26' W 010°21'510.5
2017-Oct-15 20:30N 51°23' W 010°15'510.7
2017-Oct-15 20:00N 51°20' W 010°08'510.6
2017-Oct-15 19:30N 51°16' W 010°01'510.8
2017-Oct-15 19:00N 51°13' W 009°54'610.9
2017-Oct-15 18:29N 51°10' W 009°47'511.1
2017-Oct-15 18:00N 51°06' W 009°41'611.1
2017-Oct-15 17:30N 51°03' W 009°33'12410.2
2017-Oct-15 05:24N 49°48' W 006°59'14 9.6
2017-Oct-15 03:54N 49°43' W 006°38'710.1
2017-Oct-15 03:15N 49°43' W 006°28'5 9.7
2017-Oct-15 02:41N 49°43' W 006°20'2 9.9
2017-Oct-15 02:29N 49°43' W 006°17'5 9.7
2017-Oct-15 02:00N 49°44' W 006°10'5 9.5
2017-Oct-15 01:30N 49°45' W 006°02'14 9.7
2017-Oct-15 00:04N 49°48' W 005°41'1 9.8
2017-Oct-14 23:57N 49°48' W 005°40'4 9.9
2017-Oct-14 23:31N 49°49' W 005°33'6 9.9
2017-Oct-14 22:53N 49°51' W 005°24'710.1
2017-Oct-14 22:12N 49°52' W 005°13'310.5
2017-Oct-14 21:56N 49°53' W 005°09'610.6
2017-Oct-14 21:21N 49°54' W 004°60'410.8
2017-Oct-14 20:59N 49°55' W 004°54'510.9
2017-Oct-14 20:30N 49°56' W 004°46'510.9
2017-Oct-14 20:00N 49°57' W 004°37'611.1
2017-Oct-14 19:30N 49°58' W 004°29'611.2
2017-Oct-14 19:00N 49°60' W 004°21'611.2
2017-Oct-14 18:31N 50°01' W 004°12'611.1
2017-Oct-14 18:01N 50°02' W 004°04'610.9
2017-Oct-14 17:30N 50°03' W 003°55'510.6
2017-Oct-14 17:00N 50°04' W 003°47'510.3
2017-Oct-14 16:31N 50°06' W 003°39'510.0
2017-Oct-14 16:01N 50°07' W 003°32'5 9.9
2017-Oct-14 15:30N 50°08' W 003°24'5 9.7
2017-Oct-14 15:01N 50°09' W 003°17'5 9.7
2017-Oct-14 14:31N 50°10' W 003°09'5 9.7
2017-Oct-14 14:00N 50°11' W 003°02'5 9.6
2017-Oct-14 13:31N 50°11' W 002°54'5 9.8
2017-Oct-14 12:59N 50°13' W 002°47'510.1
2017-Oct-14 12:30N 50°13' W 002°39'510.4
2017-Oct-14 11:59N 50°14' W 002°31'8311.7
2017-Oct-14 04:51N 50°29' W 000°23'3 9.9
2017-Oct-14 04:31N 50°30' W 000°17'5 9.7
2017-Oct-14 04:00N 50°31' W 000°10'5 9.5
2017-Oct-14 03:30N 50°32' W 000°03'5 9.4
2017-Oct-14 03:01N 50°33' E 000°05'5 9.4
2017-Oct-14 02:31N 50°34' E 000°12'5 9.6
2017-Oct-14 02:00N 50°35' E 000°19'5 9.8
2017-Oct-14 01:31N 50°37' E 000°26'510.3
2017-Oct-14 01:01N 50°38' E 000°34'510.7
2017-Oct-14 00:31N 50°42' E 000°41'510.9
2017-Oct-14 00:00N 50°45' E 000°48'611.1
2017-Oct-13 23:30N 50°48' E 000°56'711.2
2017-Oct-13 22:52N 50°52' E 001°05'411.0
2017-Oct-13 22:27N 50°55' E 001°10'510.7
2017-Oct-13 21:57N 50°59' E 001°17'510.3
2017-Oct-13 21:30N 51°01' E 001°22'5 9.9
2017-Oct-13 21:01N 51°05' E 001°28'5 9.3
2017-Oct-13 20:31N 51°08' E 001°34'4 8.6
2017-Oct-13 20:00N 51°10' E 001°39'4 8.5
2017-Oct-13 19:31N 51°13' E 001°44'4 8.4
2017-Oct-13 19:01N 51°17' E 001°48'4 8.6
2017-Oct-13 18:31N 51°20' E 001°51'4 8.7
2017-Oct-13 18:00N 51°24' E 001°54'5 9.1
2017-Oct-13 17:31N 51°28' E 001°59'5 9.5
2017-Oct-13 16:58N 51°31' E 002°04'5 9.9
2017-Oct-13 16:29N 51°35' E 002°10'5810.5
2017-Oct-13 10:57N 52°19' E 003°11'4 9.2
2017-Oct-13 10:29N 52°22' E 003°15'5 9.1
2017-Oct-13 09:59N 52°26' E 003°20'4 9.0
2017-Oct-13 09:29N 52°28' E 003°27'5 9.3
2017-Oct-13 08:59N 52°29' E 003°34'4 9.3
2017-Oct-13 08:30N 52°31' E 003°41'5 9.3
2017-Oct-13 07:59N 52°31' E 003°49'5 9.5
2017-Oct-13 07:29N 52°31' E 003°57'5 9.5
2017-Oct-13 07:00N 52°31' E 004°05'5 9.8
2017-Oct-13 06:30N 52°31' E 004°13'510.2
2017-Oct-13 06:01N 52°30' E 004°21'4 8.8
2017-Oct-13 05:31N 52°29' E 004°28'5 9.3
2017-Oct-13 05:00N 52°28' E 004°35'1 1.3
2017-Oct-13 04:30N 52°28' E 004°36'3 5.9
2017-Oct-13 04:00N 52°27' E 004°41'4 8.5
2017-Oct-13 03:30N 52°25' E 004°46'1 1.1
2017-Oct-13 03:00N 52°24' E 004°47'0 0.0
2017-Oct-13 02:30N 52°24' E 004°47'0 0.0
2017-Oct-13 01:57N 52°24' E 004°47'0 0.0
2017-Oct-13 01:30N 52°24' E 004°47'0 0.0
2017-Oct-13 00:51N 52°24' E 004°47'0 0.0
2017-Oct-13 00:21N 52°24' E 004°47'0 0.0
2017-Oct-13 00:00N 52°24' E 004°47'0 0.0
2017-Oct-12 23:27N 52°24' E 004°47'0 0.0
2017-Oct-12 22:54N 52°24' E 004°47'0 0.0
2017-Oct-12 22:30N 52°24' E 004°47'0 0.0
2017-Oct-12 22:00N 52°24' E 004°47'0 0.0
2017-Oct-12 21:30N 52°24' E 004°47'0 0.0
2017-Oct-12 21:00N 52°24' E 004°47'0 0.0
2017-Oct-12 20:30N 52°24' E 004°47'0 0.0
2017-Oct-12 19:48N 52°24' E 004°47'0 0.0
2017-Oct-12 19:24N 52°24' E 004°47'0 0.0
2017-Oct-12 19:00N 52°24' E 004°47'0 0.0
2017-Oct-12 18:24N 52°24' E 004°47'0 0.0
2017-Oct-12 18:00N 52°24' E 004°47'0 0.0
2017-Oct-12 17:30N 52°24' E 004°47'0 0.0
2017-Oct-12 17:00N 52°24' E 004°47'0 0.0
2017-Oct-12 16:12N 52°24' E 004°47'0 0.0
2017-Oct-12 15:48N 52°24' E 004°47'0 0.0
2017-Oct-12 15:27N 52°24' E 004°47'0 0.0
2017-Oct-12 14:39N 52°24' E 004°47'0 0.0
2017-Oct-12 14:30N 52°24' E 004°47'0 0.0
2017-Oct-12 14:00N 52°24' E 004°47'0 0.0
2017-Oct-12 13:18N 52°24' E 004°47'0 0.0
2017-Oct-12 12:51N 52°24' E 004°47'0 0.0
2017-Oct-12 12:30N 52°24' E 004°47'0 0.0
2017-Oct-12 11:45N 52°24' E 004°47'0 0.0
2017-Oct-12 11:30N 52°24' E 004°47'0 0.0
2017-Oct-12 10:57N 52°24' E 004°47'0 0.0
2017-Oct-12 10:30N 52°24' E 004°47'0 0.0
2017-Oct-12 09:54N 52°24' E 004°47'0 0.0
2017-Oct-12 09:27N 52°24' E 004°47'0 0.0
2017-Oct-12 08:36N 52°24' E 004°47'0 0.0
2017-Oct-12 08:30N 52°24' E 004°47'0 0.0
2017-Oct-12 07:57N 52°24' E 004°47'0 0.0
2017-Oct-12 07:27N 52°24' E 004°47'0 0.0
2017-Oct-12 06:39N 52°24' E 004°47'0 0.0
2017-Oct-12 06:30N 52°24' E 004°47'0 0.0
2017-Oct-12 05:54N 52°24' E 004°47'0 0.0
2017-Oct-12 05:30N 52°24' E 004°47'0 0.0
2017-Oct-12 04:51N 52°24' E 004°47'0 0.0
2017-Oct-12 04:27N 52°24' E 004°47'0 0.0
2017-Oct-12 04:00N 52°24' E 004°47'0 0.0
2017-Oct-12 03:15N 52°24' E 004°47'0 0.0
2017-Oct-12 03:00N 52°24' E 004°47'0 0.0
2017-Oct-12 02:18N 52°24' E 004°47'0 0.0
2017-Oct-12 01:54N 52°24' E 004°47'0 0.0
2017-Oct-12 01:27N 52°24' E 004°47'0 0.0
2017-Oct-12 01:00N 52°24' E 004°47'0 0.0
2017-Oct-12 00:27N 52°24' E 004°47'0 0.0
2017-Oct-12 00:00N 52°24' E 004°47'0 0.0
2017-Oct-11 23:24N 52°24' E 004°47'0 0.0
2017-Oct-11 22:57N 52°24' E 004°47'0 0.0
2017-Oct-11 22:30N 52°24' E 004°47'0 0.0
2017-Oct-11 21:54N 52°24' E 004°47'0 0.0
2017-Oct-11 21:24N 52°24' E 004°47'0 0.0
2017-Oct-11 20:54N 52°24' E 004°47'0 0.0
2017-Oct-11 20:30N 52°24' E 004°47'0 0.0
2017-Oct-11 19:51N 52°24' E 004°47'0 0.0
2017-Oct-11 19:30N 52°24' E 004°47'0 0.0
2017-Oct-11 18:54N 52°24' E 004°47'0 0.0
2017-Oct-11 18:15N 52°24' E 004°47'0 0.0
2017-Oct-11 17:42N 52°24' E 004°47'0 0.0
2017-Oct-11 17:27N 52°24' E 004°47'0 0.0
2017-Oct-11 16:35N 52°24' E 004°47'  

Dump ship's entire track history